sensor_id;sensor_type;location;lat;lon;timestamp;pressure;altitude;pressure_sealevel;temperature;humidity
43217;BME280;60511;42.686;23.300;2023-03-07T00:01:29;93918.59;;;22.31;33.55
43217;BME280;60511;42.686;23.300;2023-03-07T00:03:30;93925.13;;;22.30;32.93
43217;BME280;60511;42.686;23.300;2023-03-07T00:05:31;93920.81;;;22.25;33.16
43217;BME280;60511;42.686;23.300;2023-03-07T00:07:32;93910.31;;;22.20;33.26
43217;BME280;60511;42.686;23.300;2023-03-07T00:09:33;93914.19;;;22.22;33.21
43217;BME280;60511;42.686;23.300;2023-03-07T00:11:33;93892.53;;;22.15;33.10
43217;BME280;60511;42.686;23.300;2023-03-07T00:13:36;93912.84;;;22.32;32.93
43217;BME280;60511;42.686;23.300;2023-03-07T00:15:37;93910.72;;;22.22;33.17
43217;BME280;60511;42.686;23.300;2023-03-07T00:17:38;93904.28;;;22.26;32.61
43217;BME280;60511;42.686;23.300;2023-03-07T00:19:43;93879.34;;;22.10;32.69
43217;BME280;60511;42.686;23.300;2023-03-07T00:21:44;93868.09;;;22.04;32.86
43217;BME280;60511;42.686;23.300;2023-03-07T00:23:45;93900.47;;;22.27;32.64
43217;BME280;60511;42.686;23.300;2023-03-07T00:25:58;93902.75;;;22.25;33.32
43217;BME280;60511;42.686;23.300;2023-03-07T00:27:58;93878.66;;;22.13;32.81
43217;BME280;60511;42.686;23.300;2023-03-07T00:29:59;93900.41;;;22.24;33.05
43217;BME280;60511;42.686;23.300;2023-03-07T00:32:00;93902.31;;;22.23;32.78
43217;BME280;60511;42.686;23.300;2023-03-07T00:34:00;93890.72;;;22.23;33.16
43217;BME280;60511;42.686;23.300;2023-03-07T00:36:06;93883.38;;;22.20;32.87
43217;BME280;60511;42.686;23.300;2023-03-07T00:38:07;93809.13;;;21.73;32.58
43217;BME280;60511;42.686;23.300;2023-03-07T00:40:08;93886.75;;;22.17;32.98
43217;BME280;60511;42.686;23.300;2023-03-07T00:42:09;93857.59;;;21.96;32.80
43217;BME280;60511;42.686;23.300;2023-03-07T00:44:09;93906.03;;;22.15;32.79
43217;BME280;60511;42.686;23.300;2023-03-07T00:46:10;93919.19;;;22.20;33.01
43217;BME280;60511;42.686;23.300;2023-03-07T00:48:10;93899.53;;;22.20;32.70
43217;BME280;60511;42.686;23.300;2023-03-07T00:50:10;93782.41;;;21.41;32.76
43217;BME280;60511;42.686;23.300;2023-03-07T00:52:11;93883.25;;;22.13;32.83
43217;BME280;60511;42.686;23.300;2023-03-07T00:54:11;93868.84;;;22.01;32.99
43217;BME280;60511;42.686;23.300;2023-03-07T00:58:14;93873.63;;;22.12;32.70
43217;BME280;60511;42.686;23.300;2023-03-07T01:00:14;93889.03;;;22.15;33.15
43217;BME280;60511;42.686;23.300;2023-03-07T01:02:15;93869.94;;;21.97;32.73
43217;BME280;60511;42.686;23.300;2023-03-07T01:04:15;93884.41;;;22.12;32.54
43217;BME280;60511;42.686;23.300;2023-03-07T01:06:17;93891.38;;;22.16;32.78
43217;BME280;60511;42.686;23.300;2023-03-07T01:08:18;93894.50;;;22.18;32.61
43217;BME280;60511;42.686;23.300;2023-03-07T01:10:19;93826.41;;;21.72;32.58
43217;BME280;60511;42.686;23.300;2023-03-07T01:12:19;93875.91;;;22.10;32.68
43217;BME280;60511;42.686;23.300;2023-03-07T01:14:19;93884.81;;;22.14;32.69
43217;BME280;60511;42.686;23.300;2023-03-07T01:16:40;93870.19;;;22.15;32.62
43217;BME280;60511;42.686;23.300;2023-03-07T01:18:41;93880.53;;;22.13;32.84
43217;BME280;60511;42.686;23.300;2023-03-07T01:20:42;93871.34;;;22.14;32.90
43217;BME280;60511;42.686;23.300;2023-03-07T01:22:43;93848.38;;;21.97;32.46
43217;BME280;60511;42.686;23.300;2023-03-07T01:24:43;93834.78;;;22.16;33.07
43217;BME280;60511;42.686;23.300;2023-03-07T01:26:43;93838.53;;;22.08;32.48
43217;BME280;60511;42.686;23.300;2023-03-07T01:28:44;93847.06;;;22.14;32.54
43217;BME280;60511;42.686;23.300;2023-03-07T01:30:45;93869.75;;;22.13;32.74
43217;BME280;60511;42.686;23.300;2023-03-07T01:32:59;93862.06;;;22.11;32.68
43217;BME280;60511;42.686;23.300;2023-03-07T01:34:59;93800.03;;;21.81;32.52
43217;BME280;60511;42.686;23.300;2023-03-07T01:37:00;93738.16;;;21.38;32.68
43217;BME280;60511;42.686;23.300;2023-03-07T01:39:03;93797.75;;;21.83;32.33
43217;BME280;60511;42.686;23.300;2023-03-07T01:41:05;93817.53;;;21.94;32.48
43217;BME280;60511;42.686;23.300;2023-03-07T01:47:33;93815.09;;;21.85;32.91
43217;BME280;60511;42.686;23.300;2023-03-07T01:49:39;93854.34;;;22.10;32.19
43217;BME280;60511;42.686;23.300;2023-03-07T01:51:44;93810.06;;;21.84;32.88
43217;BME280;60511;42.686;23.300;2023-03-07T01:53:48;93860.06;;;22.08;32.62
43217;BME280;60511;42.686;23.300;2023-03-07T01:55:50;93831.56;;;21.80;32.42
43217;BME280;60511;42.686;23.300;2023-03-07T01:57:51;93757.50;;;21.44;32.84
43217;BME280;60511;42.686;23.300;2023-03-07T01:59:55;93820.88;;;21.87;32.37
43217;BME280;60511;42.686;23.300;2023-03-07T02:02:00;93818.25;;;21.91;32.45
43217;BME280;60511;42.686;23.300;2023-03-07T02:04:15;93859.72;;;22.10;32.49
43217;BME280;60511;42.686;23.300;2023-03-07T02:06:18;93837.00;;;22.11;32.47
43217;BME280;60511;42.686;23.300;2023-03-07T02:08:21;93847.38;;;22.08;32.75
43217;BME280;60511;42.686;23.300;2023-03-07T02:10:24;93855.47;;;22.08;32.40
43217;BME280;60511;42.686;23.300;2023-03-07T02:12:25;93842.91;;;21.93;32.26
43217;BME280;60511;42.686;23.300;2023-03-07T02:14:26;93845.84;;;22.07;32.47
43217;BME280;60511;42.686;23.300;2023-03-07T02:16:26;93847.38;;;22.08;32.48
43217;BME280;60511;42.686;23.300;2023-03-07T02:18:29;93850.06;;;22.08;32.50
43217;BME280;60511;42.686;23.300;2023-03-07T02:22:47;93827.81;;;22.12;32.50
43217;BME280;60511;42.686;23.300;2023-03-07T02:24:57;93835.16;;;22.15;32.62
43217;BME280;60511;42.686;23.300;2023-03-07T02:26:58;93827.66;;;22.01;32.06
43217;BME280;60511;42.686;23.300;2023-03-07T02:28:59;93837.34;;;22.05;32.21
43217;BME280;60511;42.686;23.300;2023-03-07T02:31:02;93843.56;;;22.10;32.45
43217;BME280;60511;42.686;23.300;2023-03-07T02:33:02;93629.56;;;20.77;32.65
43217;BME280;60511;42.686;23.300;2023-03-07T02:35:12;93850.13;;;22.12;32.56
43217;BME280;60511;42.686;23.300;2023-03-07T02:37:32;93838.94;;;22.10;31.93
43217;BME280;60511;42.686;23.300;2023-03-07T02:39:34;93846.66;;;22.12;31.99
43217;BME280;60511;42.686;23.300;2023-03-07T02:41:36;93793.03;;;21.76;32.00
43217;BME280;60511;42.686;23.300;2023-03-07T02:43:37;93852.06;;;22.12;32.12
43217;BME280;60511;42.686;23.300;2023-03-07T02:45:38;93853.19;;;22.11;32.30
43217;BME280;60511;42.686;23.300;2023-03-07T02:47:38;93842.66;;;22.02;32.05
43217;BME280;60511;42.686;23.300;2023-03-07T02:49:40;93848.13;;;22.05;32.14
43217;BME280;60511;42.686;23.300;2023-03-07T02:51:40;93857.81;;;22.10;32.08
43217;BME280;60511;42.686;23.300;2023-03-07T02:53:40;93799.47;;;21.72;32.24
43217;BME280;60511;42.686;23.300;2023-03-07T02:55:41;93836.75;;;21.93;32.20
43217;BME280;60511;42.686;23.300;2023-03-07T02:57:41;93853.09;;;22.03;32.41
43217;BME280;60511;42.686;23.300;2023-03-07T02:59:41;93851.63;;;22.10;32.01
43217;BME280;60511;42.686;23.300;2023-03-07T03:01:42;93841.56;;;22.06;31.98
43217;BME280;60511;42.686;23.300;2023-03-07T03:03:42;93851.22;;;22.07;32.17
43217;BME280;60511;42.686;23.300;2023-03-07T03:05:43;93858.22;;;22.12;32.50
43217;BME280;60511;42.686;23.300;2023-03-07T03:07:44;93824.41;;;21.92;32.29
43217;BME280;60511;42.686;23.300;2023-03-07T03:09:44;93845.06;;;22.07;31.92
43217;BME280;60511;42.686;23.300;2023-03-07T03:11:44;93850.06;;;22.08;32.01
43217;BME280;60511;42.686;23.300;2023-03-07T03:13:45;93858.97;;;22.13;32.28
43217;BME280;60511;42.686;23.300;2023-03-07T03:15:46;93845.09;;;22.11;31.53
43217;BME280;60511;42.686;23.300;2023-03-07T03:17:46;93846.66;;;22.12;31.91
43217;BME280;60511;42.686;23.300;2023-03-07T03:19:47;93833.88;;;22.05;32.15
43217;BME280;60511;42.686;23.300;2023-03-07T03:21:47;93829.97;;;22.02;32.18
43217;BME280;60511;42.686;23.300;2023-03-07T03:23:47;93851.63;;;22.10;31.93
43217;BME280;60511;42.686;23.300;2023-03-07T03:26:03;93805.97;;;21.94;31.91
43217;BME280;60511;42.686;23.300;2023-03-07T03:28:04;93850.47;;;22.11;32.25
43217;BME280;60511;42.686;23.300;2023-03-07T03:30:07;93829.72;;;22.11;31.86
43217;BME280;60511;42.686;23.300;2023-03-07T03:32:07;93803.84;;;21.80;32.43
43217;BME280;60511;42.686;23.300;2023-03-07T03:34:08;93838.47;;;22.04;32.22
43217;BME280;60511;42.686;23.300;2023-03-07T03:36:11;93849.31;;;22.08;31.68
43217;BME280;60511;42.686;23.300;2023-03-07T03:38:12;93857.38;;;22.08;32.24
43217;BME280;60511;42.686;23.300;2023-03-07T03:40:12;93807.53;;;21.68;32.11
43217;BME280;60511;42.686;23.300;2023-03-07T03:42:16;93857.31;;;22.04;32.16
43217;BME280;60511;42.686;23.300;2023-03-07T03:44:16;93812.72;;;21.80;32.01
43217;BME280;60511;42.686;23.300;2023-03-07T03:46:17;93811.97;;;21.83;32.01
43217;BME280;60511;42.686;23.300;2023-03-07T03:48:19;93853.09;;;22.03;32.35
43217;BME280;60511;42.686;23.300;2023-03-07T03:50:19;93878.88;;;22.04;32.64
43217;BME280;60511;42.686;23.300;2023-03-07T03:52:20;93830.47;;;21.85;32.09
43217;BME280;60511;42.686;23.300;2023-03-07T03:54:22;93824.31;;;21.84;32.43
43217;BME280;60511;42.686;23.300;2023-03-07T03:56:23;93847.16;;;21.94;32.21
43217;BME280;60511;42.686;23.300;2023-03-07T03:58:24;93843.22;;;21.88;32.00
43217;BME280;60511;42.686;23.300;2023-03-07T04:00:24;93816.13;;;21.77;31.88
43217;BME280;60511;42.686;23.300;2023-03-07T04:02:25;93856.91;;;22.02;31.70
43217;BME280;60511;42.686;23.300;2023-03-07T04:04:25;93857.38;;;22.08;31.64
43217;BME280;60511;42.686;23.300;2023-03-07T04:06:28;93824.69;;;21.83;32.34
43217;BME280;60511;42.686;23.300;2023-03-07T04:08:30;93795.19;;;21.67;32.16
43217;BME280;60511;42.686;23.300;2023-03-07T04:10:30;93848.53;;;22.07;31.87
43217;BME280;60511;42.686;23.300;2023-03-07T04:12:31;93848.78;;;21.99;31.98
43217;BME280;60511;42.686;23.300;2023-03-07T04:14:31;93860.84;;;22.08;31.89
43217;BME280;60511;42.686;23.300;2023-03-07T04:16:32;93850.88;;;22.09;31.99
43217;BME280;60511;42.686;23.300;2023-03-07T04:18:33;93464.34;;;19.40;31.91
43217;BME280;60511;42.686;23.300;2023-03-07T04:20:33;93867.03;;;22.09;31.79
43217;BME280;60511;42.686;23.300;2023-03-07T04:22:34;93862.41;;;22.10;31.92
43217;BME280;60511;42.686;23.300;2023-03-07T04:24:34;93863.97;;;22.11;31.71
43217;BME280;60511;42.686;23.300;2023-03-07T04:26:34;93776.16;;;21.56;32.25
43217;BME280;60511;42.686;23.300;2023-03-07T04:28:38;93871.28;;;22.10;31.80
43217;BME280;60511;42.686;23.300;2023-03-07T04:30:45;93841.25;;;21.85;32.32
43217;BME280;60511;42.686;23.300;2023-03-07T04:32:46;93717.19;;;21.01;31.92
43217;BME280;60511;42.686;23.300;2023-03-07T04:34:46;93875.47;;;22.07;31.85
43217;BME280;60511;42.686;23.300;2023-03-07T04:36:46;93851.00;;;21.93;31.55
43217;BME280;60511;42.686;23.300;2023-03-07T04:38:48;93849.22;;;21.78;32.17
43217;BME280;60511;42.686;23.300;2023-03-07T04:40:48;93899.72;;;22.07;32.36
43217;BME280;60511;42.686;23.300;2023-03-07T04:42:49;93893.16;;;22.05;31.58
43217;BME280;60511;42.686;23.300;2023-03-07T04:44:50;93888.53;;;22.05;31.66
43217;BME280;60511;42.686;23.300;2023-03-07T04:46:50;93858.34;;;21.96;31.85
43217;BME280;60511;42.686;23.300;2023-03-07T04:48:50;93883.56;;;22.07;32.22
43217;BME280;60511;42.686;23.300;2023-03-07T04:50:51;93749.78;;;21.19;31.94
43217;BME280;60511;42.686;23.300;2023-03-07T04:52:51;93870.22;;;21.92;31.74
43217;BME280;60511;42.686;23.300;2023-03-07T04:54:52;93839.34;;;21.85;32.00
43217;BME280;60511;42.686;23.300;2023-03-07T04:56:52;93870.78;;;22.04;31.99
43217;BME280;60511;42.686;23.300;2023-03-07T04:58:53;93874.31;;;22.08;32.01
43217;BME280;60511;42.686;23.300;2023-03-07T05:00:53;93863.88;;;22.03;31.61
43217;BME280;60511;42.686;23.300;2023-03-07T05:02:56;93867.66;;;21.99;32.10
43217;BME280;60511;42.686;23.300;2023-03-07T05:04:57;93876.59;;;22.06;31.60
43217;BME280;60511;42.686;23.300;2023-03-07T05:06:58;93890.50;;;22.08;32.25
43217;BME280;60511;42.686;23.300;2023-03-07T05:08:58;93897.09;;;22.11;31.65
43217;BME280;60511;42.686;23.300;2023-03-07T05:10:59;93889.00;;;22.11;31.36
43217;BME280;60511;42.686;23.300;2023-03-07T05:12:59;93892.06;;;22.10;31.39
43217;BME280;60511;42.686;23.300;2023-03-07T05:15:00;93862.19;;;21.95;31.77
43217;BME280;60511;42.686;23.300;2023-03-07T05:17:00;93889.38;;;22.10;31.48
43217;BME280;60511;42.686;23.300;2023-03-07T05:19:01;93829.94;;;21.76;31.85
43217;BME280;60511;42.686;23.300;2023-03-07T05:21:01;93856.34;;;21.90;31.59
43217;BME280;60511;42.686;23.300;2023-03-07T05:23:01;93896.69;;;22.09;32.11
43217;BME280;60511;42.686;23.300;2023-03-07T05:25:02;93748.63;;;21.20;31.81
43217;BME280;60511;42.686;23.300;2023-03-07T05:27:03;93806.56;;;21.57;31.19
43217;BME280;60511;42.686;23.300;2023-03-07T05:29:03;93834.13;;;21.73;31.69
43217;BME280;60511;42.686;23.300;2023-03-07T05:31:03;93857.59;;;21.96;31.28
43217;BME280;60511;42.686;23.300;2023-03-07T05:33:04;93867.59;;;21.95;31.36
43217;BME280;60511;42.686;23.300;2023-03-07T05:35:05;93880.44;;;22.05;31.50
43217;BME280;60511;42.686;23.300;2023-03-07T05:37:05;93903.97;;;22.08;31.87
43217;BME280;60511;42.686;23.300;2023-03-07T05:39:06;93883.22;;;22.09;31.76
43217;BME280;60511;42.686;23.300;2023-03-07T05:41:06;93882.78;;;22.07;31.85
43217;BME280;60511;42.686;23.300;2023-03-07T05:43:07;93898.22;;;22.10;31.81
43217;BME280;60511;42.686;23.300;2023-03-07T05:45:08;93901.28;;;22.08;31.45
43217;BME280;60511;42.686;23.300;2023-03-07T05:47:08;93876.75;;;21.91;31.56
43217;BME280;60511;42.686;23.300;2023-03-07T05:49:09;93839.34;;;21.62;31.45
43217;BME280;60511;42.686;23.300;2023-03-07T05:51:09;93919.44;;;22.12;31.45
43217;BME280;60511;42.686;23.300;2023-03-07T05:53:09;93808.78;;;21.51;31.48
43217;BME280;60511;42.686;23.300;2023-03-07T05:55:10;93896.25;;;22.07;31.17
43217;BME280;60511;42.686;23.300;2023-03-07T05:57:10;93911.75;;;22.14;31.22
43217;BME280;60511;42.686;23.300;2023-03-07T05:59:11;93920.63;;;22.14;31.41
43217;BME280;60511;42.686;23.300;2023-03-07T06:01:14;93840.53;;;21.65;31.77
43217;BME280;60511;42.686;23.300;2023-03-07T06:03:14;93909.84;;;22.14;31.51
43217;BME280;60511;42.686;23.300;2023-03-07T06:05:15;93878.31;;;21.92;31.96
43217;BME280;60511;42.686;23.300;2023-03-07T06:07:15;93932.16;;;22.15;31.90
43217;BME280;60511;42.686;23.300;2023-03-07T06:09:16;93918.66;;;22.11;31.76
43217;BME280;60511;42.686;23.300;2023-03-07T06:11:16;93888.00;;;21.96;31.27
43217;BME280;60511;42.686;23.300;2023-03-07T06:13:19;93901.47;;;22.19;31.14
43217;BME280;60511;42.686;23.300;2023-03-07T06:15:21;93906.84;;;22.19;31.07
43217;BME280;60511;42.686;23.300;2023-03-07T06:17:22;93915.72;;;22.20;31.13
43217;BME280;60511;42.686;23.300;2023-03-07T06:19:22;93742.38;;;21.13;31.40
43217;BME280;60511;42.686;23.300;2023-03-07T06:21:22;93911.03;;;22.17;31.01
43217;BME280;60511;42.686;23.300;2023-03-07T06:23:24;93890.50;;;22.08;31.16
43217;BME280;60511;42.686;23.300;2023-03-07T06:25:25;93733.56;;;21.16;31.06
43217;BME280;60511;42.686;23.300;2023-03-07T06:27:25;93904.78;;;22.09;31.10
43217;BME280;60511;42.686;23.300;2023-03-07T06:29:25;93873.75;;;21.96;31.59
43217;BME280;60511;42.686;23.300;2023-03-07T06:31:26;93919.53;;;22.19;31.46
43217;BME280;60511;42.686;23.300;2023-03-07T06:33:26;93929.59;;;22.22;31.17
43217;BME280;60511;42.686;23.300;2023-03-07T06:35:26;93894.00;;;22.09;31.29
43217;BME280;60511;42.686;23.300;2023-03-07T06:37:27;93932.00;;;22.27;31.18
43217;BME280;60511;42.686;23.300;2023-03-07T06:39:27;93922.38;;;22.26;31.13
43217;BME280;60511;42.686;23.300;2023-03-07T06:41:28;93943.59;;;22.27;31.15
43217;BME280;60511;42.686;23.300;2023-03-07T06:43:29;93948.19;;;22.27;31.01
43217;BME280;60511;42.686;23.300;2023-03-07T06:45:29;93934.69;;;22.27;30.93
43217;BME280;60511;42.686;23.300;2023-03-07T06:47:30;93941.66;;;22.28;31.01
43217;BME280;60511;42.686;23.300;2023-03-07T06:49:30;93938.22;;;22.31;30.92
43217;BME280;60511;42.686;23.300;2023-03-07T06:51:31;93918.28;;;22.13;30.92
43217;BME280;60511;42.686;23.300;2023-03-07T06:53:31;93918.25;;;22.09;30.93
43217;BME280;60511;42.686;23.300;2023-03-07T06:55:32;93906.31;;;22.10;30.86
43217;BME280;60511;42.686;23.300;2023-03-07T06:57:32;93954.41;;;22.31;31.28
43217;BME280;60511;42.686;23.300;2023-03-07T06:59:33;93893.16;;;22.05;31.37
43217;BME280;60511;42.686;23.300;2023-03-07T07:01:33;93955.69;;;22.37;31.19
43217;BME280;60511;42.686;23.300;2023-03-07T07:03:34;93912.00;;;22.28;30.94
43217;BME280;60511;42.686;23.300;2023-03-07T07:05:35;93895.47;;;22.06;31.16
43217;BME280;60511;42.686;23.300;2023-03-07T07:07:35;93905.34;;;22.22;31.00
43217;BME280;60511;42.686;23.300;2023-03-07T07:09:35;93914.72;;;22.28;31.43
43217;BME280;60511;42.686;23.300;2023-03-07T07:11:36;93921.47;;;22.41;31.30
43217;BME280;60511;42.686;23.300;2023-03-07T07:13:36;93936.13;;;22.44;31.04
43217;BME280;60511;42.686;23.300;2023-03-07T07:15:39;93933.44;;;22.44;30.88
43217;BME280;60511;42.686;23.300;2023-03-07T07:17:39;93918.22;;;22.32;31.27
43217;BME280;60511;42.686;23.300;2023-03-07T07:19:39;93939.19;;;22.42;30.87
43217;BME280;60511;42.686;23.300;2023-03-07T07:21:40;93924.88;;;22.38;31.00
43217;BME280;60511;42.686;23.300;2023-03-07T07:23:40;93934.94;;;22.41;31.03
43217;BME280;60511;42.686;23.300;2023-03-07T07:25:40;93935.31;;;22.40;30.83
43217;BME280;60511;42.686;23.300;2023-03-07T07:27:41;93766.25;;;21.41;30.74
43217;BME280;60511;42.686;23.300;2023-03-07T07:29:41;93939.72;;;22.52;30.75
43217;BME280;60511;42.686;23.300;2023-03-07T07:31:42;93939.31;;;22.50;31.00
43217;BME280;60511;42.686;23.300;2023-03-07T07:33:42;93889.63;;;22.24;30.55
43217;BME280;60511;42.686;23.300;2023-03-07T07:35:43;93926.03;;;22.37;30.98
43217;BME280;60511;42.686;23.300;2023-03-07T07:37:43;93930.06;;;22.51;31.00
43217;BME280;60511;42.686;23.300;2023-03-07T07:39:44;93915.84;;;22.27;30.92
43217;BME280;60511;42.686;23.300;2023-03-07T07:41:44;93952.00;;;22.49;31.07
43217;BME280;60511;42.686;23.300;2023-03-07T07:43:45;93950.94;;;22.54;30.97
43217;BME280;60511;42.686;23.300;2023-03-07T07:45:49;93903.50;;;22.26;31.07
43217;BME280;60511;42.686;23.300;2023-03-07T07:47:50;93934.94;;;22.41;31.05
43217;BME280;60511;42.686;23.300;2023-03-07T07:49:51;93841.44;;;21.73;31.17
43217;BME280;60511;42.686;23.300;2023-03-07T07:51:51;93949.72;;;22.51;31.17
43217;BME280;60511;42.686;23.300;2023-03-07T07:53:51;93938.06;;;22.43;31.06
43217;BME280;60511;42.686;23.300;2023-03-07T07:55:52;93968.16;;;22.49;31.26
43217;BME280;60511;42.686;23.300;2023-03-07T07:57:52;93908.53;;;22.27;30.97
43217;BME280;60511;42.686;23.300;2023-03-07T07:59:53;93959.00;;;22.54;31.02
43217;BME280;60511;42.686;23.300;2023-03-07T08:01:53;93924.34;;;22.29;31.42
43217;BME280;60511;42.686;23.300;2023-03-07T08:03:53;93957.25;;;22.65;31.53
43217;BME280;60511;42.686;23.300;2023-03-07T08:05:54;93931.25;;;22.53;31.03
43217;BME280;60511;42.686;23.300;2023-03-07T08:07:54;93932.28;;;22.45;31.28
43217;BME280;60511;42.686;23.300;2023-03-07T08:09:55;93963.72;;;22.60;32.01
43217;BME280;60511;42.686;23.300;2023-03-07T08:11:56;93956.06;;;22.62;31.33
43217;BME280;60511;42.686;23.300;2023-03-07T08:13:56;93950.72;;;22.66;31.39
43217;BME280;60511;42.686;23.300;2023-03-07T08:15:57;93961.50;;;22.66;31.02
43217;BME280;60511;42.686;23.300;2023-03-07T08:17:57;93788.13;;;21.59;31.59
43217;BME280;60511;42.686;23.300;2023-03-07T08:19:57;93948.38;;;22.64;31.12
43217;BME280;60511;42.686;23.300;2023-03-07T08:22:07;93921.25;;;22.54;31.55
43217;BME280;60511;42.686;23.300;2023-03-07T08:24:07;93834.50;;;21.95;31.41
43217;BME280;60511;42.686;23.300;2023-03-07T08:26:08;93902.94;;;22.40;31.78
43217;BME280;60511;42.686;23.300;2023-03-07T08:28:09;93932.59;;;22.66;31.67
43217;BME280;60511;42.686;23.300;2023-03-07T08:30:10;93924.41;;;22.59;31.52
43217;BME280;60511;42.686;23.300;2023-03-07T08:32:13;93938.63;;;22.83;31.53
43217;BME280;60511;42.686;23.300;2023-03-07T08:34:13;93953.66;;;22.84;31.62
43217;BME280;60511;42.686;23.300;2023-03-07T08:36:14;93936.03;;;22.63;31.30
43217;BME280;60511;42.686;23.300;2023-03-07T08:38:15;93856.28;;;22.13;31.68
43217;BME280;60511;42.686;23.300;2023-03-07T08:40:15;93965.47;;;22.76;31.49
43217;BME280;60511;42.686;23.300;2023-03-07T08:42:16;93937.53;;;22.61;31.45
43217;BME280;60511;42.686;23.300;2023-03-07T08:44:16;93894.13;;;22.43;31.36
43217;BME280;60511;42.686;23.300;2023-03-07T08:46:16;93929.09;;;22.62;31.80
43217;BME280;60511;42.686;23.300;2023-03-07T08:48:17;93932.06;;;22.57;31.92
43217;BME280;60511;42.686;23.300;2023-03-07T08:50:24;93917.72;;;22.50;31.40
43217;BME280;60511;42.686;23.300;2023-03-07T08:52:25;93773.56;;;21.63;32.11
43217;BME280;60511;42.686;23.300;2023-03-07T08:54:26;93931.44;;;22.67;31.74
43217;BME280;60511;42.686;23.300;2023-03-07T08:56:27;93958.22;;;22.80;31.93
43217;BME280;60511;42.686;23.300;2023-03-07T08:58:27;93942.44;;;22.82;31.63
43217;BME280;60511;42.686;23.300;2023-03-07T09:00:28;93950.53;;;22.82;31.28
43217;BME280;60511;42.686;23.300;2023-03-07T09:02:28;93816.19;;;22.07;31.61
43217;BME280;60511;42.686;23.300;2023-03-07T09:04:28;93924.66;;;22.77;31.39
43217;BME280;60511;42.686;23.300;2023-03-07T09:06:29;93856.34;;;22.39;31.91
43217;BME280;60511;42.686;23.300;2023-03-07T09:08:30;93912.28;;;22.73;31.23
43217;BME280;60511;42.686;23.300;2023-03-07T09:10:32;93833.41;;;22.26;31.32
43217;BME280;60511;42.686;23.300;2023-03-07T09:12:33;93918.25;;;22.89;31.23
43217;BME280;60511;42.686;23.300;2023-03-07T09:14:33;93941.91;;;22.99;31.73
43217;BME280;60511;42.686;23.300;2023-03-07T09:16:34;93899.28;;;22.82;31.47
43217;BME280;60511;42.686;23.300;2023-03-07T09:18:34;93908.19;;;22.86;31.55
43217;BME280;60511;42.686;23.300;2023-03-07T09:20:38;93895.34;;;22.22;35.49
43217;BME280;60511;42.686;23.300;2023-03-07T09:22:38;93924.81;;;22.35;34.74
43217;BME280;60511;42.686;23.300;2023-03-07T09:24:39;93906.25;;;22.30;31.19
43217;BME280;60511;42.686;23.300;2023-03-07T09:26:39;93927.91;;;22.60;29.82
43217;BME280;60511;42.686;23.300;2023-03-07T09:28:40;93894.75;;;22.33;30.03
43217;BME280;60511;42.686;23.300;2023-03-07T09:30:40;93917.94;;;22.37;29.58
43217;BME280;60511;42.686;23.300;2023-03-07T09:32:41;93910.91;;;22.33;28.96
43217;BME280;60511;42.686;23.300;2023-03-07T09:34:42;93909.72;;;22.30;28.40
43217;BME280;60511;42.686;23.300;2023-03-07T09:36:42;93762.03;;;21.40;29.17
43217;BME280;60511;42.686;23.300;2023-03-07T09:38:43;93913.31;;;22.38;29.46
43217;BME280;60511;42.686;23.300;2023-03-07T09:40:45;93782.75;;;21.59;28.92
43217;BME280;60511;42.686;23.300;2023-03-07T09:49:45;93868.88;;;22.55;29.79
43217;BME280;60511;42.686;23.300;2023-03-07T09:51:51;93883.59;;;22.61;28.61
43217;BME280;60511;42.686;23.300;2023-03-07T09:53:57;93885.34;;;22.76;28.69
43217;BME280;60511;42.686;23.300;2023-03-07T09:56:01;93880.25;;;22.71;28.58
43217;BME280;60511;42.686;23.300;2023-03-07T09:58:14;93850.31;;;22.50;27.83
43217;BME280;60511;42.686;23.300;2023-03-07T10:02:34;93881.50;;;22.77;28.54
43217;BME280;60511;42.686;23.300;2023-03-07T10:04:47;93883.47;;;22.80;28.74
43217;BME280;60511;42.686;23.300;2023-03-07T10:06:56;93872.69;;;22.84;28.89
43217;BME280;60511;42.686;23.300;2023-03-07T10:08:58;93857.63;;;22.79;28.66
43217;BME280;60511;42.686;23.300;2023-03-07T10:14:08;93867.03;;;22.93;29.09
43217;BME280;60511;42.686;23.300;2023-03-07T10:16:26;93862.06;;;22.95;29.62
43217;BME280;60511;42.686;23.300;2023-03-07T10:18:33;93864.75;;;22.95;29.27
43217;BME280;60511;42.686;23.300;2023-03-07T10:20:51;93858.19;;;22.96;29.45
43217;BME280;60511;42.686;23.300;2023-03-07T10:23:00;93857.78;;;22.94;29.47
43217;BME280;60511;42.686;23.300;2023-03-07T10:25:36;93855.19;;;23.01;29.60
43217;BME280;60511;42.686;23.300;2023-03-07T10:27:39;93836.13;;;22.86;29.54
43217;BME280;60511;42.686;23.300;2023-03-07T10:29:52;93838.63;;;23.02;29.49
43217;BME280;60511;42.686;23.300;2023-03-07T10:32:02;93837.44;;;23.00;29.51
43217;BME280;60511;42.686;23.300;2023-03-07T10:34:14;93834.03;;;23.03;29.21
43217;BME280;60511;42.686;23.300;2023-03-07T10:36:21;93846.72;;;23.02;29.32
43217;BME280;60511;42.686;23.300;2023-03-07T10:40:35;93837.56;;;23.07;29.47
43217;BME280;60511;42.686;23.300;2023-03-07T10:42:39;93831.69;;;23.01;29.54
43217;BME280;60511;42.686;23.300;2023-03-07T10:44:40;93834.09;;;23.10;29.63
43217;BME280;60511;42.686;23.300;2023-03-07T10:46:41;93825.78;;;22.92;30.02
43217;BME280;60511;42.686;23.300;2023-03-07T10:48:45;93552.66;;;21.26;29.60
43217;BME280;60511;42.686;23.300;2023-03-07T10:50:57;93836.75;;;23.06;29.28
43217;BME280;60511;42.686;23.300;2023-03-07T10:53:02;93822.84;;;23.04;29.69
43217;BME280;60511;42.686;23.300;2023-03-07T10:55:33;93820.25;;;23.12;29.76
43217;BME280;60511;42.686;23.300;2023-03-07T10:57:34;93820.19;;;23.08;29.88
43217;BME280;60511;42.686;23.300;2023-03-07T10:59:36;93815.22;;;22.80;29.40
43217;BME280;60511;42.686;23.300;2023-03-07T11:01:38;93795.81;;;23.01;29.51